Time,TemperatureF,DewpointF,PressureIn,WindDirection,WindDirectionDegrees,WindSpeedMPH,WindSpeedGustMPH,Humidity,HourlyPrecipIn,Conditions,Clouds,dailyrainin,SoftwareType,DateUTC
2013-02-05 00:01:00,5.0,-1.0,29.92,WNW,296,0.0,1.0,77,0.00,,,0.00,,2013-02-05 06:01:00,
2013-02-05 00:11:00,5.0,-1.0,29.92,WNW,296,0.0,1.0,77,0.00,,,0.00,,2013-02-05 06:11:00,
2013-02-05 00:21:00,5.0,-1.0,29.93,NNW,331,0.0,1.0,77,0.00,,,0.00,,2013-02-05 06:21:00,
2013-02-05 00:32:00,5.0,-1.0,29.93,NNW,331,0.0,1.0,77,0.00,,,0.00,,2013-02-05 06:32:00,
2013-02-05 00:42:00,5.0,-1.0,29.93,NNW,331,0.0,1.0,77,0.00,,,0.00,,2013-02-05 06:42:00,
2013-02-05 00:51:00,5.0,0.0,29.91,NW,314,0.0,1.0,78,0.00,,,0.00,,2013-02-05 06:51:00,
2013-02-05 01:01:00,5.0,0.0,29.90,NW,314,0.0,2.0,80,0.00,,,0.00,,2013-02-05 07:01:00,
2013-02-05 01:11:00,5.0,0.0,29.90,NW,314,0.0,2.0,80,0.00,,,0.00,,2013-02-05 07:11:00,
2013-02-05 01:22:00,4.0,-1.0,29.89,NW,314,1.0,2.0,80,0.00,,,0.00,,2013-02-05 07:22:00,
2013-02-05 01:31:00,3.0,-1.0,29.89,NW,314,0.0,2.0,81,0.00,,,0.00,,2013-02-05 07:31:00,
2013-02-05 01:41:00,3.0,-1.0,29.89,NW,314,0.0,2.0,81,0.00,,,0.00,,2013-02-05 07:41:00,
2013-02-05 01:51:00,2.0,-2.0,29.88,NW,314,0.0,1.0,81,0.00,,,0.00,,2013-02-05 07:51:00,
2013-02-05 02:01:00,2.0,-2.0,29.88,NW,314,0.0,1.0,81,0.00,,,0.00,,2013-02-05 08:01:00,
2013-02-05 02:11:00,2.0,-2.0,29.88,NW,314,0.0,1.0,81,0.00,,,0.00,,2013-02-05 08:11:00,
2013-02-05 02:21:00,1.0,-3.0,29.88,NW,314,0.0,1.0,82,0.00,,,0.00,,2013-02-05 08:21:00,
2013-02-05 02:31:00,0.0,-4.0,29.88,SSW,199,0.0,3.0,83,0.00,,,0.00,,2013-02-05 08:31:00,
2013-02-05 02:41:00,0.0,-4.0,29.88,SSW,199,0.0,3.0,83,0.00,,,0.00,,2013-02-05 08:41:00,
2013-02-05 02:52:00,0.0,-4.0,29.88,SW,225,0.0,1.0,83,0.00,,,0.00,,2013-02-05 08:52:00,
2013-02-05 03:02:00,-1.0,-5.0,29.87,North,355,0.0,2.0,84,0.00,,,0.00,,2013-02-05 09:02:00,
2013-02-05 03:11:00,-1.0,-5.0,29.85,North,0,0.0,0.0,84,0.00,,,0.00,,2013-02-05 09:11:00,
2013-02-05 03:21:00,-1.0,-5.0,29.85,North,0,0.0,0.0,84,0.00,,,0.00,,2013-02-05 09:21:00,
2013-02-05 03:32:00,-1.0,-5.0,29.85,North,0,0.0,0.0,84,0.00,,,0.00,,2013-02-05 09:32:00,
2013-02-05 03:42:00,-1.0,-5.0,29.85,North,0,0.0,0.0,84,0.00,,,0.00,,2013-02-05 09:42:00,
2013-02-05 03:52:00,0.0,-3.0,29.85,NNW,336,0.0,2.0,85,0.00,,,0.00,,2013-02-05 09:52:00,
2013-02-05 04:01:00,0.0,-3.0,29.85,NE,45,0.0,1.0,85,0.00,,,0.00,,2013-02-05 10:01:00,
2013-02-05 04:11:00,1.0,-2.0,29.85,NE,45,0.0,1.0,85,0.00,,,0.00,,2013-02-05 10:11:00,
2013-02-05 04:21:00,1.0,-2.0,29.85,NE,45,0.0,1.0,85,0.00,,,0.00,,2013-02-05 10:21:00,
2013-02-05 04:31:00,2.0,-1.0,29.85,NNW,332,0.0,1.0,85,0.00,,,0.00,,2013-02-05 10:31:00,
2013-02-05 04:42:00,2.0,-1.0,29.85,NNW,332,0.0,1.0,85,0.00,,,0.00,,2013-02-05 10:42:00,
2013-02-05 04:52:00,3.0,0.0,29.85,North,11,0.0,2.0,85,0.00,,,0.00,,2013-02-05 10:52:00,
2013-02-05 05:01:00,4.0,1.0,29.84,NE,51,0.0,2.0,85,0.00,,,0.00,,2013-02-05 11:01:00,
2013-02-05 05:11:00,4.0,1.0,29.84,NE,51,0.0,2.0,85,0.00,,,0.00,,2013-02-05 11:11:00,
2013-02-05 05:22:00,6.0,3.0,29.84,NW,320,0.0,2.0,86,0.00,,,0.00,,2013-02-05 11:22:00,
2013-02-05 05:32:00,8.0,4.0,29.85,SSE,164,0.0,2.0,85,0.00,,,0.00,,2013-02-05 11:32:00,
2013-02-05 05:41:00,8.0,4.0,29.85,SSE,164,0.0,2.0,85,0.00,,,0.00,,2013-02-05 11:41:00,
2013-02-05 05:52:00,10.0,4.0,29.85,South,171,4.0,6.0,75,0.00,,,0.00,,2013-02-05 11:52:00,
2013-02-05 06:01:00,11.0,3.0,29.84,South,181,4.0,7.0,69,0.00,,,0.00,,2013-02-05 12:01:00,
2013-02-05 06:12:00,11.0,3.0,29.84,South,181,4.0,7.0,69,0.00,,,0.00,,2013-02-05 12:12:00,
2013-02-05 06:21:00,11.0,3.0,29.83,ESE,117,2.0,3.0,71,0.00,,,0.00,,2013-02-05 12:21:00,
2013-02-05 06:32:00,10.0,3.0,29.83,SSE,153,2.0,5.0,72,0.00,,,0.00,,2013-02-05 12:32:00,
2013-02-05 06:42:00,10.0,3.0,29.83,SSE,153,2.0,5.0,72,0.00,,,0.00,,2013-02-05 12:42:00,
2013-02-05 06:52:00,9.0,4.0,29.82,SSE,168,2.0,5.0,80,0.00,,,0.00,,2013-02-05 12:52:00,
2013-02-05 07:01:00,10.0,6.0,29.81,South,175,2.0,5.0,84,0.00,,,0.00,,2013-02-05 13:01:00,
2013-02-05 07:12:00,10.0,6.0,29.81,South,175,2.0,5.0,84,0.00,,,0.00,,2013-02-05 13:12:00,
2013-02-05 07:21:00,10.0,6.0,29.80,SSE,156,2.0,6.0,85,0.00,,,0.00,,2013-02-05 13:21:00,
2013-02-05 07:31:00,10.0,6.0,29.80,SSE,156,2.0,6.0,85,0.00,,,0.00,,2013-02-05 13:31:00,
2013-02-05 07:42:00,10.0,6.0,29.80,SSE,156,2.0,6.0,85,0.00,,,0.00,,2013-02-05 13:42:00,
2013-02-05 07:51:00,12.0,9.0,29.81,South,184,3.0,6.0,87,0.00,,,0.00,,2013-02-05 13:51:00,
2013-02-05 08:01:00,13.0,10.0,29.80,SSE,168,3.0,6.0,87,0.00,,,0.00,,2013-02-05 14:01:00,
2013-02-05 08:12:00,13.0,10.0,29.80,SSE,168,3.0,6.0,87,0.00,,,0.00,,2013-02-05 14:12:00,
2013-02-05 08:21:00,14.0,11.0,29.80,SSE,168,2.0,5.0,87,0.00,,,0.00,,2013-02-05 14:21:00,
2013-02-05 08:32:00,15.0,11.0,29.79,South,178,4.0,11.0,85,0.00,,,0.00,,2013-02-05 14:32:00,
2013-02-05 08:42:00,15.0,11.0,29.79,South,178,4.0,11.0,85,0.00,,,0.00,,2013-02-05 14:42:00,
2013-02-05 08:52:00,15.0,11.0,29.78,South,177,4.0,8.0,84,0.00,,,0.00,,2013-02-05 14:52:00,
2013-02-05 09:02:00,16.0,12.0,29.77,South,177,4.0,9.0,84,0.00,,,0.00,,2013-02-05 15:02:00,
2013-02-05 09:11:00,16.0,12.0,29.77,South,177,4.0,9.0,84,0.00,,,0.00,,2013-02-05 15:11:00,
2013-02-05 09:21:00,17.0,13.0,29.77,South,181,6.0,10.0,83,0.00,,,0.00,,2013-02-05 15:21:00,
2013-02-05 09:32:00,17.0,13.0,29.77,South,181,6.0,10.0,83,0.00,,,0.00,,2013-02-05 15:32:00,
2013-02-05 09:41:00,17.0,13.0,29.77,South,181,6.0,10.0,83,0.00,,,0.00,,2013-02-05 15:41:00,
2013-02-05 09:52:00,20.0,15.0,29.77,SSW,196,6.0,14.0,82,0.00,,,0.00,,2013-02-05 15:52:00,
2013-02-05 10:01:00,21.0,16.0,29.76,South,189,8.0,16.0,82,0.00,,,0.00,,2013-02-05 16:01:00,
2013-02-05 10:11:00,21.0,16.0,29.76,South,189,8.0,16.0,82,0.00,,,0.00,,2013-02-05 16:11:00,
2013-02-05 10:22:00,21.0,16.0,29.76,South,189,8.0,16.0,82,0.00,,,0.00,,2013-02-05 16:22:00,
2013-02-05 10:32:00,21.0,16.0,29.76,South,189,8.0,16.0,82,0.00,,,0.00,,2013-02-05 16:32:00,
2013-02-05 10:42:00,21.0,16.0,29.76,South,189,8.0,16.0,82,0.00,,,0.00,,2013-02-05 16:42:00,
2013-02-05 11:01:00,23.0,18.0,29.76,SW,218,11.0,21.0,81,0.00,,,0.00,,2013-02-05 17:01:00,
2013-02-05 11:11:00,23.0,18.0,29.76,SW,218,11.0,21.0,81,0.00,,,0.00,,2013-02-05 17:11:00,
2013-02-05 11:22:00,23.0,19.0,29.75,SSW,210,9.0,17.0,83,0.00,,,0.00,,2013-02-05 17:22:00,
2013-02-05 11:32:00,23.0,19.0,29.75,SSW,210,9.0,17.0,83,0.00,,,0.00,,2013-02-05 17:32:00,
2013-02-05 11:42:00,23.0,19.0,29.75,SSW,210,9.0,17.0,83,0.00,,,0.00,,2013-02-05 17:42:00,
2013-02-05 11:52:00,23.0,19.0,29.76,SW,219,8.0,14.0,84,0.00,,,0.00,,2013-02-05 17:52:00,
2013-02-05 12:01:00,23.0,20.0,29.76,SW,235,5.0,11.0,88,0.00,,,0.00,,2013-02-05 18:01:00,
2013-02-05 12:11:00,23.0,20.0,29.76,SW,235,5.0,11.0,88,0.00,,,0.00,,2013-02-05 18:11:00,
2013-02-05 12:21:00,23.0,20.0,29.76,SW,235,5.0,11.0,88,0.00,,,0.00,,2013-02-05 18:21:00,
2013-02-05 12:32:00,23.0,20.0,29.76,SW,235,5.0,11.0,88,0.00,,,0.00,,2013-02-05 18:32:00,
2013-02-05 12:42:00,23.0,20.0,29.76,SW,235,5.0,11.0,88,0.00,,,0.00,,2013-02-05 18:42:00,
2013-02-05 12:52:00,25.0,22.0,29.76,SW,222,4.0,10.0,88,0.00,,,0.00,,2013-02-05 18:52:00,
2013-02-05 13:02:00,24.0,21.0,29.76,SW,215,6.0,12.0,88,0.00,,,0.00,,2013-02-05 19:02:00,
2013-02-05 13:11:00,24.0,21.0,29.76,SW,215,6.0,12.0,88,0.00,,,0.00,,2013-02-05 19:11:00,
2013-02-05 13:21:00,25.0,22.0,29.76,WSW,239,8.0,12.0,87,0.00,,,0.00,,2013-02-05 19:21:00,
2013-02-05 13:32:00,26.0,22.0,29.75,SW,231,4.0,13.0,86,0.00,,,0.00,,2013-02-05 19:32:00,
2013-02-05 13:42:00,26.0,22.0,29.75,SW,231,4.0,13.0,86,0.00,,,0.00,,2013-02-05 19:42:00,
2013-02-05 13:52:00,26.0,21.0,29.76,West,261,4.0,13.0,82,0.00,,,0.00,,2013-02-05 19:52:00,
2013-02-05 14:01:00,26.0,21.0,29.76,West,259,4.0,11.0,81,0.00,,,0.00,,2013-02-05 20:01:00,
2013-02-05 14:11:00,26.0,21.0,29.76,West,259,4.0,11.0,81,0.00,,,0.00,,2013-02-05 20:11:00,
2013-02-05 14:21:00,26.0,21.0,29.76,West,273,6.0,12.0,80,0.00,,,0.00,,2013-02-05 20:21:00,
2013-02-05 14:32:00,26.0,21.0,29.78,West,281,6.0,13.0,80,0.00,,,0.00,,2013-02-05 20:32:00,
2013-02-05 14:42:00,26.0,21.0,29.78,West,281,6.0,13.0,80,0.00,,,0.00,,2013-02-05 20:42:00,
2013-02-05 14:52:00,26.0,21.0,29.79,West,273,4.0,11.0,80,0.00,,,0.00,,2013-02-05 20:52:00,
2013-02-05 15:02:00,26.0,21.0,29.79,West,273,4.0,11.0,80,0.00,,,0.00,,2013-02-05 21:02:00,
2013-02-05 15:11:00,26.0,21.0,29.79,West,273,4.0,11.0,80,0.00,,,0.00,,2013-02-05 21:11:00,
2013-02-05 15:22:00,26.0,21.0,29.79,West,273,4.0,11.0,80,0.00,,,0.00,,2013-02-05 21:22:00,
2013-02-05 16:01:00,26.0,21.0,29.82,WNW,286,4.0,11.0,80,0.00,,,0.00,,2013-02-05 22:01:00,
2013-02-05 16:11:00,26.0,21.0,29.82,WNW,286,4.0,11.0,80,0.00,,,0.00,,2013-02-05 22:11:00,
2013-02-05 16:21:00,26.0,21.0,29.82,WNW,284,4.0,11.0,80,0.00,,,0.00,,2013-02-05 22:21:00,
2013-02-05 16:32:00,26.0,21.0,29.83,West,274,7.0,10.0,80,0.00,,,0.00,,2013-02-05 22:32:00,
2013-02-05 16:42:00,26.0,21.0,29.83,West,274,7.0,10.0,80,0.00,,,0.00,,2013-02-05 22:42:00,
2013-02-05 16:51:00,26.0,21.0,29.83,WSW,246,2.0,8.0,81,0.00,,,0.00,,2013-02-05 22:51:00,
2013-02-05 17:02:00,26.0,21.0,29.83,WSW,246,2.0,8.0,81,0.00,,,0.00,,2013-02-05 23:02:00,
2013-02-05 17:11:00,26.0,21.0,29.83,WSW,246,2.0,8.0,81,0.00,,,0.00,,2013-02-05 23:11:00,
2013-02-05 17:21:00,26.0,21.0,29.85,West,275,3.0,8.0,81,0.00,,,0.00,,2013-02-05 23:21:00,
2013-02-05 17:32:00,26.0,21.0,29.86,West,273,2.0,4.0,82,0.00,,,0.00,,2013-02-05 23:32:00,
2013-02-05 17:42:00,26.0,21.0,29.86,West,273,2.0,4.0,82,0.00,,,0.00,,2013-02-05 23:42:00,
2013-02-05 17:52:00,26.0,21.0,29.87,West,270,4.0,7.0,82,0.00,,,0.00,,2013-02-05 23:52:00,
2013-02-05 18:02:00,26.0,21.0,29.88,West,278,4.0,11.0,81,0.00,,,0.00,,2013-02-06 00:02:00,
2013-02-05 18:11:00,26.0,21.0,29.88,West,278,4.0,11.0,81,0.00,,,0.00,,2013-02-06 00:11:00,
2013-02-05 18:21:00,27.0,22.0,29.89,WNW,282,3.0,10.0,81,0.00,,,0.00,,2013-02-06 00:21:00,
2013-02-05 18:32:00,27.0,22.0,29.89,WNW,282,3.0,10.0,81,0.00,,,0.00,,2013-02-06 00:32:00,
2013-02-05 18:42:00,27.0,22.0,29.89,WNW,282,3.0,10.0,81,0.00,,,0.00,,2013-02-06 00:42:00,
2013-02-05 18:52:00,27.0,22.0,29.91,WNW,287,4.0,8.0,80,0.00,,,0.00,,2013-02-06 00:52:00,
2013-02-05 19:02:00,27.0,21.0,29.91,NW,314,4.0,8.0,79,0.00,,,0.00,,2013-02-06 01:02:00,
2013-02-05 19:11:00,27.0,21.0,29.91,NW,314,4.0,8.0,79,0.00,,,0.00,,2013-02-06 01:11:00,
2013-02-05 19:22:00,27.0,21.0,29.92,NW,307,6.0,11.0,79,0.00,,,0.00,,2013-02-06 01:22:00,
2013-02-05 19:32:00,27.0,21.0,29.93,NW,316,7.0,11.0,78,0.00,,,0.00,,2013-02-06 01:32:00,
2013-02-05 19:42:00,27.0,21.0,29.93,NW,316,7.0,11.0,78,0.00,,,0.00,,2013-02-06 01:42:00,
2013-02-05 19:52:00,27.0,21.0,29.93,NW,318,4.0,15.0,78,0.00,,,0.00,,2013-02-06 01:52:00,
2013-02-05 20:01:00,27.0,20.0,29.95,NW,318,8.0,13.0,76,0.00,,,0.00,,2013-02-06 02:01:00,
2013-02-05 20:11:00,27.0,20.0,29.95,NW,318,8.0,13.0,76,0.00,,,0.00,,2013-02-06 02:11:00,
2013-02-05 20:22:00,27.0,20.0,29.95,NW,318,8.0,13.0,76,0.00,,,0.00,,2013-02-06 02:22:00,
2013-02-05 20:32:00,26.0,19.0,29.97,NW,318,7.0,15.0,74,0.00,,,0.00,,2013-02-06 02:32:00,
2013-02-05 20:42:00,26.0,19.0,29.97,NW,318,7.0,15.0,74,0.00,,,0.00,,2013-02-06 02:42:00,
2013-02-05 20:52:00,26.0,19.0,29.97,NNW,331,10.0,13.0,74,0.00,,,0.00,,2013-02-06 02:52:00,
2013-02-05 21:02:00,26.0,19.0,29.97,NW,317,6.0,13.0,74,0.00,,,0.00,,2013-02-06 03:02:00,
2013-02-05 21:12:00,26.0,19.0,29.97,NW,317,6.0,13.0,74,0.00,,,0.00,,2013-02-06 03:12:00,
2013-02-05 21:22:00,26.0,19.0,29.97,NW,314,5.0,14.0,74,0.00,,,0.00,,2013-02-06 03:22:00,
2013-02-05 21:32:00,26.0,19.0,29.97,NW,314,5.0,14.0,74,0.00,,,0.00,,2013-02-06 03:32:00,
2013-02-05 21:42:00,26.0,19.0,29.97,NW,314,5.0,14.0,74,0.00,,,0.00,,2013-02-06 03:42:00,
2013-02-05 21:52:00,25.0,17.0,29.99,NNW,330,8.0,15.0,72,0.00,,,0.00,,2013-02-06 03:52:00,
2013-02-05 22:02:00,24.0,16.0,30.00,NW,313,8.0,16.0,72,0.00,,,0.00,,2013-02-06 04:02:00,
2013-02-05 22:11:00,24.0,16.0,30.00,NW,313,8.0,16.0,72,0.00,,,0.00,,2013-02-06 04:11:00,
2013-02-05 22:21:00,24.0,16.0,30.00,NW,312,6.0,12.0,72,0.00,,,0.00,,2013-02-06 04:21:00,
2013-02-05 22:32:00,24.0,17.0,30.01,NW,309,4.0,11.0,74,0.00,,,0.00,,2013-02-06 04:32:00,
2013-02-05 22:42:00,24.0,17.0,30.01,NW,309,4.0,11.0,74,0.00,,,0.00,,2013-02-06 04:42:00,
2013-02-05 22:52:00,24.0,17.0,30.02,NW,311,6.0,13.0,73,0.00,,,0.00,,2013-02-06 04:52:00,
2013-02-05 23:02:00,24.0,17.0,30.02,NW,311,6.0,13.0,73,0.00,,,0.00,,2013-02-06 05:02:00,
2013-02-05 23:12:00,24.0,17.0,30.02,NW,311,6.0,13.0,73,0.00,,,0.00,,2013-02-06 05:12:00,
2013-02-05 23:22:00,23.0,16.0,30.02,NW,325,3.0,10.0,73,0.00,,,0.00,,2013-02-06 05:22:00,
2013-02-05 23:31:00,23.0,15.0,30.03,NW,307,5.0,8.0,72,0.00,,,0.00,,2013-02-06 05:31:00,
2013-02-05 23:42:00,23.0,15.0,30.03,NW,307,5.0,8.0,72,0.00,,,0.00,,2013-02-06 05:42:00,
2013-02-05 23:53:00,23.0,16.0,30.04,NW,310,4.0,8.0,73,0.00,,,0.00,,2013-02-06 05:53:00,